createdAt,value
2017-08-04T19:12:35.665Z,47.00
2017-08-04T19:15:15.704Z,47.30
2017-08-04T19:17:43.273Z,47.60
2017-08-04T19:20:10.850Z,47.50
2017-08-04T19:22:38.373Z,48.10
2017-08-04T19:25:06.722Z,48.30
2017-08-04T19:27:34.287Z,48.20
2017-08-04T19:30:01.909Z,48.30
2017-08-04T19:32:29.598Z,48.30
2017-08-04T19:34:57.241Z,48.50
2017-08-04T19:37:24.824Z,48.50
2017-08-04T19:39:52.358Z,48.90
2017-08-04T19:42:19.916Z,48.80
2017-08-04T19:44:47.501Z,48.90
2017-08-04T19:47:15.074Z,48.90
2017-08-04T19:49:43.483Z,49.70
2017-08-04T19:52:11.789Z,50.10
2017-08-04T19:54:39.357Z,50.10
2017-08-04T19:57:06.906Z,50.40
2017-08-04T19:59:34.466Z,49.90
2017-08-04T20:02:02.067Z,50.50
2017-08-04T20:04:30.240Z,51.30
2017-08-04T20:06:57.764Z,51.20
2017-08-04T20:09:25.321Z,51.30
2017-08-04T20:11:52.863Z,51.70
2017-08-04T20:14:20.397Z,51.40
2017-08-04T20:16:49.721Z,51.60
2017-08-04T20:19:17.249Z,51.60
2017-08-04T20:21:45.543Z,51.60
2017-08-04T20:24:13.853Z,51.50
2017-08-04T20:26:41.417Z,51.70
2017-08-04T20:29:08.996Z,52.30
2017-08-04T20:31:36.578Z,51.80
2017-08-04T20:34:04.113Z,52.00
2017-08-04T20:36:31.737Z,51.70
2017-08-04T20:38:59.357Z,51.70
2017-08-04T20:41:26.895Z,51.60
2017-08-04T20:43:55.547Z,51.60
2017-08-04T20:46:23.206Z,51.90
2017-08-04T20:48:50.726Z,52.20
2017-08-04T20:51:18.259Z,52.40
2017-08-04T20:53:45.829Z,52.20
2017-08-04T20:56:13.392Z,52.30
2017-08-04T20:58:40.927Z,52.70
2017-08-04T21:01:09.149Z,52.60
2017-08-04T21:03:36.766Z,52.40
2017-08-04T21:06:05.253Z,52.90
2017-08-04T21:08:33.193Z,52.90
2017-08-04T21:11:00.792Z,53.00
2017-08-04T21:13:29.506Z,53.30
2017-08-04T21:15:58.231Z,53.10
2017-08-04T21:18:25.777Z,53.10
2017-08-04T21:20:53.323Z,53.50
2017-08-04T21:23:20.884Z,53.30
2017-08-04T21:25:48.413Z,54.10
2017-08-04T21:28:15.953Z,54.50
2017-08-04T21:30:43.605Z,54.70
2017-08-04T21:33:11.139Z,55.50
2017-08-04T21:35:38.671Z,55.10
2017-08-04T21:38:07.107Z,54.10
2017-08-04T21:40:34.645Z,54.10
2017-08-04T21:43:02.190Z,55.10
2017-08-04T21:45:29.767Z,54.00
2017-08-04T21:47:57.313Z,54.70
2017-08-04T21:50:25.294Z,55.30
2017-08-04T21:52:53.058Z,55.00
2017-08-04T21:55:20.604Z,54.50
2017-08-04T21:57:49.051Z,54.10
2017-08-04T22:00:16.724Z,54.70
2017-08-04T22:02:44.254Z,55.00
2017-08-04T22:05:13.769Z,54.90
2017-08-04T22:07:41.338Z,55.40
2017-08-04T22:10:09.637Z,54.80
2017-08-04T22:12:37.194Z,55.40
2017-08-04T22:15:04.759Z,56.40
2017-08-04T22:17:32.301Z,55.90
2017-08-04T22:19:59.847Z,57.00
2017-08-04T22:22:27.434Z,56.70
2017-08-04T22:24:54.968Z,56.40
2017-08-04T22:27:22.490Z,56.50
2017-08-04T22:29:50.058Z,57.00
2017-08-04T22:32:17.604Z,57.20
2017-08-04T22:34:45.154Z,56.60
2017-08-04T22:37:12.823Z,56.40
2017-08-04T22:39:40.373Z,56.90
2017-08-04T22:42:07.934Z,57.20
2017-08-04T22:44:35.603Z,57.10
2017-08-04T22:47:03.142Z,56.50
2017-08-04T22:49:30.675Z,55.60
2017-08-04T22:51:59.095Z,55.70
2017-08-04T22:54:26.617Z,55.80
2017-08-04T22:56:54.910Z,56.20
2017-08-04T22:59:22.469Z,56.10
2017-08-04T23:01:50.002Z,55.80
2017-08-04T23:04:18.302Z,55.80
2017-08-04T23:06:45.904Z,55.50
2017-08-04T23:09:13.432Z,55.90
2017-08-04T23:11:40.948Z,56.60
2017-08-04T23:14:09.347Z,55.00
2017-08-04T23:16:38.313Z,54.90
2017-08-04T23:19:05.854Z,54.90
2017-08-04T23:21:33.445Z,55.20
2017-08-04T23:24:00.983Z,55.40
2017-08-04T23:26:28.509Z,56.20
2017-08-04T23:28:56.240Z,56.10
2017-08-04T23:31:23.763Z,56.30
2017-08-04T23:33:51.924Z,56.50
2017-08-04T23:36:19.489Z,57.20
2017-08-04T23:38:47.649Z,56.90
2017-08-04T23:41:15.185Z,57.20
2017-08-04T23:43:42.767Z,56.90
2017-08-04T23:46:10.298Z,57.00
2017-08-04T23:48:37.820Z,57.50
2017-08-04T23:51:05.554Z,57.30
2017-08-04T23:53:33.083Z,57.10
2017-08-04T23:56:00.620Z,57.30
2017-08-04T23:58:29.140Z,57.80
